createdAt,value
2023-03-28T00:04:17.706Z,78.18
2023-03-28T00:10:40.675Z,77.92
2023-03-28T00:17:00.599Z,77.76
2023-03-28T00:23:23.588Z,78
2023-03-28T00:29:43.581Z,78.26
2023-03-28T00:36:06.604Z,78.08
2023-03-28T00:42:26.611Z,78.75
2023-03-28T00:48:49.719Z,79.25
2023-03-28T00:55:09.657Z,79.11
2023-03-28T01:01:32.701Z,79.9
2023-03-28T01:07:52.592Z,79.71
2023-03-28T01:14:15.641Z,80.31
2023-03-28T01:20:35.609Z,80.23
2023-03-28T01:26:58.674Z,80.37
2023-03-28T01:33:18.598Z,80.31
2023-03-28T01:39:41.642Z,80.53
2023-03-28T01:46:01.822Z,80.55
2023-03-28T01:52:24.615Z,80.71
2023-03-28T01:58:44.587Z,80.49
2023-03-28T02:05:07.619Z,81.42
2023-03-28T02:11:27.599Z,81.05
2023-03-28T02:17:50.731Z,80.62
2023-03-28T02:24:10.609Z,80.6
2023-03-28T02:30:33.614Z,81.85
2023-03-28T02:36:53.588Z,81.84
2023-03-28T02:43:16.705Z,81.65
2023-03-28T02:49:47.497Z,81.16
2023-03-28T02:55:59.796Z,81.44
2023-03-28T03:02:19.681Z,81.7
2023-03-28T03:08:42.618Z,81.5
2023-03-28T03:15:02.694Z,82.09
2023-03-28T03:21:25.572Z,81.74
2023-03-28T03:27:45.732Z,81.96
2023-03-28T03:34:08.565Z,82.95
2023-03-28T03:40:28.689Z,82.3
2023-03-28T03:46:51.611Z,82.02
2023-03-28T03:53:11.649Z,82.15
2023-03-28T03:59:34.560Z,81.64
2023-03-28T04:05:54.727Z,81.87
2023-03-28T04:29:43.605Z,82.03
2023-03-28T04:36:06.622Z,82.01
2023-03-28T04:42:26.629Z,82.12
2023-03-28T04:48:49.600Z,82.1
2023-03-28T04:55:09.592Z,82.45
2023-03-28T05:01:32.664Z,82.28
2023-03-28T05:07:52.702Z,81.89
2023-03-28T05:14:15.586Z,82.19
2023-03-28T05:20:35.652Z,82.13
2023-03-28T05:26:58.609Z,82.32
2023-03-28T05:33:18.773Z,82.52
2023-03-28T05:39:41.563Z,82.12
2023-03-28T05:46:01.723Z,82.53
2023-03-28T05:52:24.567Z,82.74
2023-03-28T05:58:44.643Z,82.71
2023-03-28T06:05:07.677Z,82.95
2023-03-28T06:11:27.613Z,83.52
2023-03-28T06:17:50.677Z,83.76
2023-03-28T06:24:10.648Z,84.09
2023-03-28T06:30:33.581Z,84.72
2023-03-28T06:36:53.648Z,84.69
2023-03-28T06:43:16.643Z,84.75
2023-03-28T06:49:36.585Z,84.05
2023-03-28T06:55:59.665Z,83.76
2023-03-28T07:02:19.668Z,82.82
2023-03-28T07:08:42.619Z,82.25
2023-03-28T07:15:02.594Z,82.14
2023-03-28T07:21:25.610Z,81.72
2023-03-28T07:27:45.689Z,81.5
2023-03-28T07:34:08.628Z,80.72
2023-03-28T07:40:28.619Z,79.71
2023-03-28T07:46:51.604Z,79.49
2023-03-28T07:53:11.657Z,78.71
2023-03-28T07:59:38.306Z,77.31
2023-03-28T08:05:58.652Z,77.06
2023-03-28T08:12:21.635Z,77.3
2023-03-28T08:18:41.631Z,75.46
2023-03-28T08:25:04.628Z,74.23
2023-03-28T08:31:24.654Z,71.51
2023-03-28T08:37:47.619Z,69.86
2023-03-28T08:44:07.706Z,69.47
2023-03-28T08:50:30.783Z,66.6
2023-03-28T08:56:50.636Z,65.8
2023-03-28T09:03:13.745Z,63.26
2023-03-28T09:09:33.646Z,62.54
2023-03-28T09:25:44.519Z,58.65
2023-03-28T09:32:04.639Z,55.71
2023-03-28T09:38:27.582Z,53.97
2023-03-28T09:44:54.489Z,55.09
2023-03-28T09:51:10.606Z,55.21
2023-03-28T09:57:30.620Z,57.48
2023-03-28T10:03:53.601Z,53.62
2023-03-28T10:10:13.659Z,53.9
2023-03-28T10:16:36.592Z,52.97
2023-03-28T10:22:56.623Z,51.22
2023-03-28T10:29:19.589Z,50.1
2023-03-28T10:35:39.630Z,48.11
2023-03-28T10:42:02.656Z,43.92
2023-03-28T10:48:22.611Z,39.1
2023-03-28T10:54:45.578Z,41.59
2023-03-28T11:01:05.812Z,42.3
2023-03-28T11:07:30.813Z,45.92
2023-03-28T11:13:48.602Z,47.7
2023-03-28T11:20:11.602Z,44.7
2023-03-28T11:26:31.581Z,47.21
2023-03-28T11:32:54.637Z,47.34
2023-03-28T11:39:14.610Z,44.28
2023-03-28T11:45:47.166Z,43.52
2023-03-28T11:51:57.579Z,47.06
2023-03-28T11:58:20.824Z,43.3
2023-03-28T12:04:40.617Z,43.43
2023-03-28T12:11:03.946Z,43.17
2023-03-28T12:17:23.679Z,43.76
2023-03-28T12:23:46.572Z,44.05
2023-03-28T12:30:06.576Z,46.32
2023-03-28T12:36:29.613Z,40.78
2023-03-28T12:42:49.572Z,41.16
2023-03-28T12:49:12.614Z,42.23
2023-03-28T12:55:32.616Z,40.94
2023-03-28T13:01:55.593Z,37.96
2023-03-28T13:08:15.573Z,39.88
2023-03-28T13:14:38.624Z,40.49
2023-03-28T13:20:58.697Z,40.45
2023-03-28T13:27:21.574Z,38.72
2023-03-28T13:33:43.632Z,38.98
2023-03-28T13:40:04.588Z,37.96
2023-03-28T13:46:24.616Z,38.07
2023-03-28T13:52:47.608Z,38.66
2023-03-28T13:59:07.583Z,38.22
2023-03-28T14:05:30.619Z,37.55
2023-03-28T14:11:50.596Z,37.52
2023-03-28T14:18:13.601Z,39.4
2023-03-28T14:24:33.598Z,37.79
2023-03-28T14:30:56.655Z,37.2
2023-03-28T14:54:20.122Z,38.11
2023-03-28T15:00:39.582Z,37.99
2023-03-28T15:07:02.616Z,37.93
2023-03-28T15:13:23.333Z,36.97
2023-03-28T15:19:45.590Z,37.66
2023-03-28T15:26:05.594Z,39.44
2023-03-28T15:32:28.708Z,39.79
2023-03-28T15:38:48.600Z,37.81
2023-03-28T15:45:11.585Z,39.41
2023-03-28T15:51:31.819Z,38.18
2023-03-28T15:57:54.603Z,39.75
2023-03-28T16:04:14.955Z,39.08
2023-03-28T16:10:37.634Z,40.48
2023-03-28T16:16:57.708Z,39.41
2023-03-28T16:23:23.634Z,39.93
2023-03-28T16:29:43.834Z,40.36
2023-03-28T16:36:06.653Z,42.17
2023-03-28T16:42:26.630Z,42.9
2023-03-28T16:48:49.595Z,42.72
2023-03-28T16:55:09.584Z,42.54
2023-03-28T17:01:32.623Z,42.77
2023-03-28T17:07:52.684Z,42.04
2023-03-28T17:14:15.589Z,41.28
2023-03-28T17:20:35.578Z,41.09
2023-03-28T17:26:58.909Z,40.48
2023-03-28T17:33:18.671Z,40.47
2023-03-28T17:39:41.605Z,40.19
2023-03-28T17:46:01.789Z,40.88
2023-03-28T17:52:24.591Z,41.33
2023-03-28T17:58:44.585Z,41.71
2023-03-28T18:05:07.621Z,41.87
2023-03-28T18:11:27.652Z,42.35
2023-03-28T18:17:50.629Z,43.25
2023-03-28T18:24:10.669Z,43.79
2023-03-28T18:30:33.648Z,44.04
2023-03-28T18:36:53.590Z,44.32
2023-03-28T18:43:16.855Z,44.39
2023-03-28T18:49:36.565Z,45.17
2023-03-28T18:55:59.874Z,44.74
2023-03-28T19:02:19.656Z,45.88
2023-03-28T19:08:42.636Z,54.32
2023-03-28T19:15:02.672Z,60.11
2023-03-28T19:21:25.613Z,64.74
2023-03-28T19:27:45.600Z,68.09
2023-03-28T19:34:08.623Z,71.11
2023-03-28T19:40:28.595Z,72.48
2023-03-28T19:46:51.582Z,74.55
2023-03-28T20:02:22.547Z,75.94
2023-03-28T20:08:42.601Z,77.57
2023-03-28T20:15:05.562Z,77.84
2023-03-28T20:21:25.681Z,79.04
2023-03-28T20:27:48.590Z,79.12
2023-03-28T20:34:09.224Z,78.92
2023-03-28T20:40:32.607Z,78.84
2023-03-28T20:46:52.690Z,79.14
2023-03-28T20:53:15.608Z,78.87
2023-03-28T20:59:35.617Z,78.28
2023-03-28T21:05:58.621Z,78.85
2023-03-28T21:12:18.595Z,80.14
2023-03-28T21:18:41.622Z,80.95
2023-03-28T21:25:01.591Z,81.44
2023-03-28T21:31:24.651Z,81.63
2023-03-28T21:37:44.640Z,81.85
2023-03-28T21:44:07.570Z,81.61
2023-03-28T21:50:27.583Z,81.38
2023-03-28T21:56:50.634Z,81
2023-03-28T22:03:10.670Z,80.97
2023-03-28T22:09:33.763Z,81.35
2023-03-28T22:15:53.684Z,81.16
2023-03-28T22:22:16.677Z,81.24
2023-03-28T22:28:36.622Z,81.64
2023-03-28T22:34:59.659Z,81.19
2023-03-28T22:41:19.617Z,80.67
2023-03-28T22:47:42.643Z,80.77
2023-03-28T22:54:02.661Z,81.4
2023-03-28T23:00:25.611Z,81.39
2023-03-28T23:23:23.644Z,81.62
2023-03-28T23:29:43.558Z,81.4
2023-03-28T23:36:06.656Z,80.86
2023-03-28T23:42:26.632Z,80.99
2023-03-28T23:48:49.624Z,81.27
2023-03-28T23:55:09.576Z,81.41
